createdAt,value
2023-03-16T00:02:20.475Z,38.50
2023-03-16T00:04:48.834Z,38.75
2023-03-16T00:07:17.670Z,37.75
2023-03-16T00:09:46.090Z,39.25
2023-03-16T00:12:20.154Z,37.00
2023-03-16T00:14:50.325Z,40.25
2023-03-16T00:17:21.368Z,38.50
2023-03-16T00:19:58.507Z,39.00
2023-03-16T00:22:31.719Z,39.00
2023-03-16T00:25:00.231Z,40.50
2023-03-16T00:27:28.555Z,41.75
2023-03-16T00:29:57.049Z,39.00
2023-03-16T00:32:26.922Z,42.25
2023-03-16T00:34:55.589Z,39.75
2023-03-16T00:37:24.942Z,40.75
2023-03-16T00:39:57.070Z,39.50
2023-03-16T00:42:28.394Z,42.00
2023-03-16T00:45:00.583Z,39.00
2023-03-16T00:47:31.992Z,40.00
2023-03-16T00:50:01.956Z,39.50
2023-03-16T00:52:31.057Z,39.50
2023-03-16T00:54:59.451Z,38.00
2023-03-16T00:57:28.714Z,39.75
2023-03-16T00:59:57.430Z,39.00
2023-03-16T01:02:26.389Z,38.50
2023-03-16T01:04:55.479Z,38.00
2023-03-16T01:07:24.125Z,39.00
2023-03-16T01:09:52.497Z,35.50
2023-03-16T01:12:21.190Z,35.00
2023-03-16T01:14:50.053Z,37.00
2023-03-16T01:17:19.184Z,35.00
2023-03-16T01:19:48.529Z,37.00
2023-03-16T01:22:17.021Z,36.00
2023-03-16T01:24:48.545Z,37.00
2023-03-16T01:27:17.077Z,36.50
2023-03-16T01:29:45.390Z,36.25
2023-03-16T01:32:14.102Z,38.00
2023-03-16T01:34:42.494Z,38.50
2023-03-16T01:37:10.888Z,36.75
2023-03-16T01:39:39.198Z,35.50
2023-03-16T01:42:07.665Z,37.25
2023-03-16T01:44:56.388Z,37.00
2023-03-16T01:47:25.091Z,34.25
2023-03-16T01:49:56.819Z,34.75
2023-03-16T01:52:34.379Z,37.00
2023-03-16T01:55:14.144Z,33.25
2023-03-16T01:57:46.885Z,33.00
2023-03-16T02:00:24.626Z,32.25
2023-03-16T02:03:06.193Z,34.50
2023-03-16T02:05:40.041Z,34.50
2023-03-16T02:08:11.609Z,31.75
2023-03-16T02:10:41.642Z,33.00
2023-03-16T02:13:10.181Z,33.00
2023-03-16T02:15:39.461Z,31.75
2023-03-16T02:18:10.109Z,28.50
2023-03-16T02:20:47.848Z,32.00
2023-03-16T02:23:20.332Z,29.25
2023-03-16T02:26:09.750Z,32.50
2023-03-16T02:28:52.004Z,34.25
2023-03-16T02:31:21.330Z,31.75
2023-03-16T02:33:52.059Z,32.25
2023-03-16T02:36:21.804Z,34.00
2023-03-16T02:38:50.106Z,32.00
2023-03-16T02:41:21.006Z,31.00
2023-03-16T02:43:56.517Z,30.50
2023-03-16T02:46:29.171Z,31.00
2023-03-16T02:49:03.870Z,31.00
2023-03-16T02:51:33.327Z,29.25
2023-03-16T02:54:01.650Z,30.00
2023-03-16T02:56:30.023Z,31.50
2023-03-16T02:58:58.812Z,29.50
2023-03-16T03:01:27.392Z,31.75
2023-03-16T03:03:55.724Z,29.00
2023-03-16T03:06:25.656Z,30.00
2023-03-16T03:08:54.094Z,29.50
2023-03-16T03:11:22.425Z,27.75
2023-03-16T03:13:50.817Z,31.50
2023-03-16T03:16:19.144Z,29.50
2023-03-16T03:18:47.591Z,30.75
2023-03-16T03:21:16.196Z,28.50
2023-03-16T03:23:47.631Z,28.00
2023-03-16T03:26:16.379Z,27.75
2023-03-16T03:28:45.912Z,28.75
2023-03-16T03:31:19.149Z,29.50
2023-03-16T03:33:47.496Z,26.75
2023-03-16T03:36:16.109Z,30.00
2023-03-16T03:38:45.227Z,28.50
2023-03-16T03:41:13.715Z,30.50
2023-03-16T03:43:42.472Z,29.00
2023-03-16T03:46:10.934Z,29.00
2023-03-16T03:48:39.293Z,31.00
2023-03-16T03:51:07.860Z,30.50
2023-03-16T03:53:36.282Z,30.25
2023-03-16T03:56:04.625Z,29.00
2023-03-16T03:58:32.913Z,31.25
2023-03-16T04:01:01.977Z,26.75
2023-03-16T04:03:30.343Z,29.50
2023-03-16T04:05:58.723Z,29.25
2023-03-16T04:08:27.005Z,27.00
2023-03-16T04:10:55.299Z,30.75
2023-03-16T04:13:23.769Z,31.50
2023-03-16T04:16:00.701Z,29.25
2023-03-16T04:18:29.374Z,30.25
2023-03-16T04:20:57.706Z,29.75
2023-03-16T04:23:26.123Z,30.50
2023-03-16T04:25:55.744Z,27.75
2023-03-16T04:28:24.064Z,30.50
2023-03-16T04:30:52.356Z,26.00
2023-03-16T04:33:20.662Z,27.25
2023-03-16T04:35:49.772Z,30.00
2023-03-16T04:38:18.086Z,29.75
2023-03-16T04:40:46.650Z,27.00
2023-03-16T04:43:15.188Z,28.25
2023-03-16T04:45:43.761Z,24.75
2023-03-16T04:48:12.239Z,27.75
2023-03-16T04:50:41.204Z,25.25
2023-03-16T04:53:09.590Z,27.50
2023-03-16T04:55:37.890Z,28.00
2023-03-16T04:58:06.721Z,27.50
2023-03-16T05:00:35.032Z,29.25
2023-03-16T05:03:03.756Z,25.75
2023-03-16T05:05:32.186Z,26.00
2023-03-16T05:08:00.509Z,27.25
2023-03-16T05:10:29.237Z,27.75
2023-03-16T05:12:57.739Z,30.50
2023-03-16T05:15:26.346Z,28.50
2023-03-16T05:17:57.009Z,29.50
2023-03-16T05:20:26.266Z,26.75
2023-03-16T05:22:54.849Z,25.50
2023-03-16T05:25:23.260Z,27.00
2023-03-16T05:27:54.913Z,26.00
2023-03-16T05:30:23.265Z,29.00
2023-03-16T05:32:52.385Z,24.25
2023-03-16T05:35:22.977Z,28.50
2023-03-16T05:37:52.385Z,27.75
2023-03-16T05:40:23.866Z,26.25
2023-03-16T05:42:57.594Z,29.50
2023-03-16T05:45:26.321Z,30.25
2023-03-16T05:47:54.714Z,25.75
2023-03-16T05:50:23.615Z,27.75
2023-03-16T05:52:51.921Z,28.50
2023-03-16T05:55:20.385Z,26.25
2023-03-16T05:57:48.685Z,26.75
2023-03-16T06:00:19.082Z,28.00
2023-03-16T06:02:50.156Z,27.00
2023-03-16T06:05:20.441Z,29.75
2023-03-16T06:07:49.148Z,31.50
2023-03-16T06:10:17.913Z,29.75
2023-03-16T06:12:46.479Z,30.00
2023-03-16T06:15:14.996Z,29.00
2023-03-16T06:17:43.388Z,29.75
2023-03-16T06:20:14.334Z,30.00
2023-03-16T06:22:44.144Z,29.25
2023-03-16T06:25:14.862Z,29.75
2023-03-16T06:27:43.609Z,29.50
2023-03-16T06:30:14.304Z,30.00
2023-03-16T06:32:43.522Z,28.00
2023-03-16T06:35:12.297Z,29.00
2023-03-16T06:37:40.746Z,28.75
2023-03-16T06:40:10.009Z,31.50
2023-03-16T06:42:38.355Z,27.00
2023-03-16T06:45:07.569Z,29.75
2023-03-16T06:47:35.898Z,27.50
2023-03-16T06:50:05.491Z,29.00
2023-03-16T06:52:33.848Z,27.75
2023-03-16T06:55:02.170Z,28.00
2023-03-16T06:57:30.489Z,28.50
2023-03-16T06:59:58.880Z,27.75
2023-03-16T07:02:27.343Z,29.75
2023-03-16T07:04:55.661Z,30.25
2023-03-16T07:07:25.431Z,27.50
2023-03-16T07:09:53.819Z,28.25
2023-03-16T07:12:22.143Z,30.50
2023-03-16T07:14:53.065Z,31.25
2023-03-16T07:17:22.678Z,29.00
2023-03-16T07:19:50.979Z,28.50
2023-03-16T07:22:19.304Z,29.50
2023-03-16T07:24:47.860Z,30.25
2023-03-16T07:27:16.143Z,27.25
2023-03-16T07:29:44.528Z,28.75
2023-03-16T07:32:13.052Z,30.25
2023-03-16T07:34:42.837Z,29.00
2023-03-16T07:37:11.899Z,29.75
2023-03-16T07:39:40.275Z,30.00
2023-03-16T07:42:08.936Z,27.50
2023-03-16T07:44:37.246Z,28.50
2023-03-16T07:47:05.629Z,30.75
2023-03-16T07:49:34.010Z,29.00
2023-03-16T07:52:02.618Z,30.75
2023-03-16T07:54:30.997Z,28.50
2023-03-16T07:56:59.307Z,30.75
2023-03-16T07:59:27.610Z,31.50
2023-03-16T08:01:56.017Z,30.50
2023-03-16T08:04:24.728Z,31.25
2023-03-16T08:07:01.111Z,28.25
2023-03-16T08:09:29.623Z,30.00
2023-03-16T08:11:57.967Z,32.25
2023-03-16T08:14:26.291Z,29.50
2023-03-16T08:16:56.019Z,30.50
2023-03-16T08:19:24.308Z,29.75
2023-03-16T08:22:01.174Z,31.25
2023-03-16T08:24:30.531Z,30.00
2023-03-16T08:27:00.412Z,27.75
2023-03-16T08:29:28.745Z,31.75
2023-03-16T08:31:58.492Z,31.25
2023-03-16T08:34:27.759Z,29.50
2023-03-16T08:36:56.352Z,30.75
2023-03-16T08:39:24.657Z,28.50
2023-03-16T08:41:53.219Z,29.75
2023-03-16T08:44:22.491Z,28.75
2023-03-16T08:46:52.907Z,30.50
2023-03-16T08:49:21.991Z,28.00
2023-03-16T08:51:50.868Z,31.00
2023-03-16T08:54:19.198Z,29.75
2023-03-16T08:56:47.541Z,29.50
2023-03-16T08:59:27.288Z,29.75
2023-03-16T09:01:57.767Z,29.25
2023-03-16T09:04:26.510Z,29.00
2023-03-16T09:07:10.236Z,30.75
2023-03-16T09:09:38.996Z,30.25
2023-03-16T09:12:08.229Z,28.50
2023-03-16T09:14:39.284Z,28.75
2023-03-16T09:17:12.607Z,28.00
2023-03-16T09:19:51.044Z,29.25
2023-03-16T09:22:21.741Z,27.00
2023-03-16T09:24:50.606Z,30.50
2023-03-16T09:27:19.607Z,26.25
2023-03-16T09:29:48.103Z,26.75
2023-03-16T09:32:17.247Z,29.25
2023-03-16T09:34:45.794Z,25.50
2023-03-16T09:37:14.703Z,28.25
2023-03-16T09:39:43.045Z,27.75
2023-03-16T09:42:31.684Z,25.00
2023-03-16T09:45:06.474Z,27.75
2023-03-16T09:47:37.628Z,26.75
2023-03-16T09:50:18.215Z,25.75
2023-03-16T09:53:14.987Z,28.75
2023-03-16T09:55:47.517Z,27.25
2023-03-16T09:58:22.138Z,27.50
2023-03-16T10:01:11.736Z,25.25
2023-03-16T10:04:18.082Z,24.50
2023-03-16T10:07:13.173Z,25.25
2023-03-16T10:09:49.599Z,26.75
2023-03-16T10:12:19.893Z,25.75
2023-03-16T10:14:58.580Z,25.00
2023-03-16T10:17:58.174Z,23.00
2023-03-16T10:20:30.047Z,26.00
2023-03-16T10:23:00.356Z,29.50
2023-03-16T10:25:45.469Z,26.75
2023-03-16T10:28:25.245Z,28.00
2023-03-16T10:30:56.379Z,28.50
2023-03-16T10:33:28.033Z,25.50
2023-03-16T10:35:59.413Z,27.25
2023-03-16T10:38:47.686Z,30.50
2023-03-16T10:41:28.923Z,29.25
2023-03-16T10:43:59.202Z,30.50
2023-03-16T10:46:30.025Z,32.00
2023-03-16T10:49:01.824Z,29.50
2023-03-16T10:51:34.786Z,32.25
2023-03-16T10:54:17.282Z,30.25
2023-03-16T10:56:47.052Z,28.75
2023-03-16T10:59:36.315Z,30.00
2023-03-16T11:02:17.466Z,29.25
2023-03-16T11:04:47.016Z,29.75
2023-03-16T11:07:26.828Z,31.25
2023-03-16T11:09:57.444Z,31.50
2023-03-16T11:12:25.718Z,32.00
2023-03-16T11:14:55.037Z,34.00
2023-03-16T11:17:48.421Z,31.50
2023-03-16T11:20:27.399Z,29.25
2023-03-16T11:22:56.151Z,34.25
2023-03-16T11:25:38.277Z,30.75
2023-03-16T11:28:26.988Z,30.75
2023-03-16T11:31:05.015Z,32.25
2023-03-16T11:33:36.063Z,30.25
2023-03-16T11:36:34.074Z,30.50
2023-03-16T11:39:16.121Z,28.50
2023-03-16T11:42:15.279Z,30.25
2023-03-16T11:44:58.362Z,33.25
2023-03-16T11:47:55.018Z,32.50
2023-03-16T11:50:23.489Z,33.50
2023-03-16T11:53:02.552Z,30.00
2023-03-16T11:55:51.615Z,32.00
2023-03-16T11:58:38.440Z,32.00
2023-03-16T12:02:12.212Z,34.25
2023-03-16T12:05:12.920Z,31.50
2023-03-16T12:08:14.115Z,29.25
2023-03-16T12:11:29.044Z,32.50
2023-03-16T12:20:11.425Z,31.50
2023-03-16T12:25:50.125Z,30.50
2023-03-16T12:31:42.173Z,32.50
2023-03-16T12:37:32.405Z,33.00
2023-03-16T12:43:34.711Z,34.75
2023-03-16T12:46:34.754Z,33.00
2023-03-16T12:49:06.518Z,33.75
2023-03-16T12:51:48.570Z,34.75
2023-03-16T12:54:26.305Z,35.75
2023-03-16T12:59:53.925Z,32.50
2023-03-16T13:02:37.873Z,33.25
2023-03-16T13:05:14.066Z,35.75
2023-03-16T13:08:09.854Z,33.25
2023-03-16T13:11:00.660Z,34.75
2023-03-16T13:13:29.948Z,37.00
2023-03-16T13:16:11.327Z,32.25
2023-03-16T13:18:56.028Z,35.25
2023-03-16T13:21:39.182Z,34.25
2023-03-16T13:24:27.125Z,35.50
2023-03-16T13:27:02.982Z,35.25
2023-03-16T13:29:33.685Z,35.50
2023-03-16T13:32:08.465Z,35.00
2023-03-16T13:34:59.005Z,37.00
2023-03-16T13:37:31.003Z,35.00
2023-03-16T13:40:05.699Z,37.75
2023-03-16T13:42:35.170Z,37.25
2023-03-16T13:45:16.268Z,38.25
2023-03-16T13:47:46.337Z,36.50
2023-03-16T13:50:15.532Z,37.50
2023-03-16T13:52:45.579Z,36.50
2023-03-16T13:55:20.495Z,35.00
2023-03-16T13:57:50.306Z,36.75
2023-03-16T14:00:28.317Z,37.25
2023-03-16T14:02:59.858Z,36.75
2023-03-16T14:05:34.599Z,38.75
2023-03-16T14:08:05.774Z,38.25
2023-03-16T14:10:36.657Z,38.25
2023-03-16T14:13:37.166Z,37.00
2023-03-16T14:16:19.722Z,35.50
2023-03-16T14:18:53.456Z,35.00
2023-03-16T14:21:28.238Z,38.25
2023-03-16T14:24:02.930Z,35.75
2023-03-16T14:26:45.909Z,37.50
2023-03-16T14:29:31.378Z,37.50
2023-03-16T14:32:04.816Z,38.00
2023-03-16T14:34:37.064Z,38.00
2023-03-16T14:37:11.199Z,37.00
2023-03-16T14:39:43.033Z,38.25
2023-03-16T14:42:32.008Z,39.75
2023-03-16T14:45:02.971Z,40.00
2023-03-16T14:47:34.708Z,36.50
2023-03-16T14:50:10.380Z,37.75
2023-03-16T14:52:38.937Z,36.00
2023-03-16T14:55:19.667Z,39.50
2023-03-16T14:57:48.177Z,39.25
2023-03-16T15:00:18.523Z,41.00
2023-03-16T15:02:59.078Z,39.00
2023-03-16T15:05:37.818Z,37.50
2023-03-16T15:08:11.689Z,41.75
2023-03-16T15:10:40.269Z,38.50
2023-03-16T15:13:39.405Z,41.00
2023-03-16T15:16:12.310Z,41.00
2023-03-16T15:18:41.030Z,38.50
2023-03-16T15:21:30.556Z,41.50
2023-03-16T15:23:59.742Z,42.00
2023-03-16T15:26:31.305Z,41.00
2023-03-16T15:29:00.946Z,39.00
2023-03-16T15:31:29.332Z,40.75
2023-03-16T15:33:57.671Z,38.75
2023-03-16T15:36:26.085Z,38.00
2023-03-16T15:38:56.551Z,40.25
2023-03-16T15:41:32.243Z,43.50
2023-03-16T15:44:03.638Z,40.50
2023-03-16T15:46:32.613Z,42.25
2023-03-16T15:49:00.920Z,39.25
2023-03-16T15:51:32.574Z,40.00
2023-03-16T15:54:04.792Z,39.25
2023-03-16T15:56:53.140Z,41.75
2023-03-16T15:59:23.015Z,40.25
2023-03-16T16:01:53.640Z,39.25
2023-03-16T16:04:25.270Z,39.50
2023-03-16T16:06:57.803Z,40.00
2023-03-16T16:09:26.457Z,39.25
2023-03-16T16:11:54.885Z,39.00
2023-03-16T16:14:26.867Z,40.50
2023-03-16T16:16:56.413Z,41.00
2023-03-16T16:19:24.777Z,41.25
2023-03-16T16:21:53.622Z,39.00
2023-03-16T16:24:21.939Z,38.50
2023-03-16T16:26:54.703Z,40.00
2023-03-16T16:29:26.045Z,39.25
2023-03-16T16:31:56.725Z,39.75
2023-03-16T16:34:26.520Z,40.75
2023-03-16T16:36:58.840Z,38.25
2023-03-16T16:39:27.659Z,40.00
2023-03-16T16:41:57.706Z,39.25
2023-03-16T16:44:32.894Z,38.25
2023-03-16T16:47:03.593Z,38.75
2023-03-16T16:49:33.192Z,38.00
2023-03-16T16:52:02.041Z,38.00
2023-03-16T16:54:32.575Z,40.00
2023-03-16T16:57:02.145Z,40.50
2023-03-16T16:59:39.096Z,41.00
2023-03-16T17:02:27.465Z,39.50
2023-03-16T17:04:56.004Z,40.00
2023-03-16T17:07:25.093Z,43.00
2023-03-16T17:09:53.438Z,42.50
2023-03-16T17:12:24.471Z,39.50
2023-03-16T17:14:53.141Z,39.00
2023-03-16T17:17:22.450Z,39.75
2023-03-16T17:19:51.164Z,39.00
2023-03-16T17:22:27.547Z,41.50
2023-03-16T17:24:56.331Z,38.00
2023-03-16T17:27:35.190Z,39.50
2023-03-16T17:30:04.831Z,38.75
2023-03-16T17:32:33.304Z,39.25
2023-03-16T17:35:01.825Z,37.25
2023-03-16T17:37:31.014Z,39.75
2023-03-16T17:39:59.376Z,39.50
2023-03-16T17:42:28.025Z,41.50
2023-03-16T17:44:57.363Z,39.25
2023-03-16T17:47:28.387Z,39.75
2023-03-16T17:49:57.888Z,39.50
2023-03-16T17:52:28.005Z,40.75
2023-03-16T17:54:56.866Z,38.00
2023-03-16T17:57:28.423Z,37.75
2023-03-16T17:59:57.504Z,38.25
2023-03-16T18:02:40.622Z,38.00
2023-03-16T18:05:19.193Z,38.75
2023-03-16T18:07:48.056Z,39.75
2023-03-16T18:10:21.835Z,40.25
2023-03-16T18:12:58.760Z,40.25
2023-03-16T18:15:31.214Z,38.00
2023-03-16T18:18:00.399Z,40.00
2023-03-16T18:20:33.962Z,39.00
2023-03-16T18:23:11.630Z,39.00
2023-03-16T18:25:40.200Z,41.00
2023-03-16T18:28:10.780Z,42.50
2023-03-16T18:30:40.840Z,38.75
2023-03-16T18:33:22.639Z,42.25
2023-03-16T18:35:53.103Z,41.25
2023-03-16T18:38:45.730Z,40.50
2023-03-16T18:41:23.728Z,40.00
2023-03-16T18:43:54.339Z,39.25
2023-03-16T18:46:22.679Z,37.75
2023-03-16T18:48:52.920Z,40.75
2023-03-16T18:51:22.597Z,36.75
2023-03-16T18:53:51.641Z,39.00
2023-03-16T18:56:23.004Z,39.75
2023-03-16T18:58:53.545Z,39.25
2023-03-16T19:01:28.662Z,39.75
2023-03-16T19:03:59.112Z,40.50
2023-03-16T19:06:32.256Z,40.50
2023-03-16T19:09:37.104Z,41.00
2023-03-16T19:12:05.978Z,39.25
2023-03-16T19:14:35.889Z,41.00
2023-03-16T19:17:04.420Z,39.25
2023-03-16T19:19:32.970Z,38.00
2023-03-16T19:22:19.572Z,38.00
2023-03-16T19:24:51.624Z,37.75
2023-03-16T19:27:25.006Z,39.25
2023-03-16T19:29:56.598Z,37.00
2023-03-16T19:32:25.032Z,39.25
2023-03-16T19:34:53.402Z,39.75
2023-03-16T19:37:24.741Z,38.50
2023-03-16T19:39:53.116Z,40.00
2023-03-16T19:42:23.352Z,39.00
2023-03-16T19:44:52.455Z,39.75
2023-03-16T19:47:27.050Z,39.50
2023-03-16T19:49:55.566Z,40.25
2023-03-16T19:52:24.085Z,39.25
2023-03-16T19:54:52.686Z,41.00
2023-03-16T19:57:22.075Z,41.50
2023-03-16T19:59:55.659Z,39.50
2023-03-16T20:02:23.947Z,39.00
2023-03-16T20:04:52.952Z,40.25
2023-03-16T20:07:22.310Z,42.75
2023-03-16T20:09:52.542Z,42.00
2023-03-16T20:12:28.033Z,39.00
2023-03-16T20:14:58.062Z,40.75
2023-03-16T20:17:30.493Z,40.00
2023-03-16T20:19:58.960Z,41.00
2023-03-16T20:22:30.617Z,39.50
2023-03-16T20:24:59.009Z,42.50
2023-03-16T20:27:29.272Z,41.50
2023-03-16T20:29:57.866Z,43.50
2023-03-16T20:32:34.022Z,37.75
2023-03-16T20:35:02.383Z,42.25
2023-03-16T20:37:32.330Z,40.50
2023-03-16T20:40:11.692Z,42.50
2023-03-16T20:42:42.405Z,42.75
2023-03-16T20:45:19.942Z,42.50
2023-03-16T20:47:48.866Z,43.25
2023-03-16T20:50:27.094Z,42.25
2023-03-16T20:52:56.827Z,41.50
2023-03-16T20:55:28.771Z,44.00
2023-03-16T20:57:58.448Z,39.25
2023-03-16T21:00:31.648Z,40.75
2023-03-16T21:03:00.735Z,40.75
2023-03-16T21:05:30.697Z,39.50
2023-03-16T21:07:59.356Z,43.25
2023-03-16T21:10:28.939Z,40.25
2023-03-16T21:12:59.447Z,40.00
2023-03-16T21:15:33.948Z,40.50
2023-03-16T21:18:15.485Z,40.75
2023-03-16T21:20:46.322Z,39.00
2023-03-16T21:23:20.507Z,42.50
2023-03-16T21:25:56.772Z,41.00
2023-03-16T21:28:30.384Z,41.75
2023-03-16T21:31:01.020Z,41.00
2023-03-16T21:33:33.559Z,42.00
2023-03-16T21:36:07.234Z,39.50
2023-03-16T21:38:35.887Z,39.75
2023-03-16T21:41:05.207Z,42.25
2023-03-16T21:43:36.406Z,40.50
2023-03-16T21:46:05.893Z,40.75
2023-03-16T21:48:40.614Z,38.75
2023-03-16T21:51:21.063Z,40.50
2023-03-16T21:53:51.635Z,40.00
2023-03-16T21:56:29.293Z,43.00
2023-03-16T21:59:00.216Z,42.00
2023-03-16T22:01:31.894Z,40.25
2023-03-16T22:04:24.584Z,42.00
2023-03-16T22:06:54.135Z,39.25
2023-03-16T22:09:26.586Z,39.00
2023-03-16T22:11:56.364Z,41.00
2023-03-16T22:14:25.303Z,39.50
2023-03-16T22:16:53.780Z,43.00
2023-03-16T22:19:22.323Z,40.25
2023-03-16T22:21:54.847Z,40.75
2023-03-16T22:24:28.950Z,41.25
2023-03-16T22:27:00.309Z,41.75
2023-03-16T22:29:34.628Z,42.25
2023-03-16T22:32:10.895Z,42.75
2023-03-16T22:34:47.322Z,38.25
2023-03-16T22:37:22.645Z,39.50
2023-03-16T22:39:51.798Z,40.50
2023-03-16T22:42:42.100Z,41.75
2023-03-16T22:45:27.119Z,42.00
2023-03-16T22:47:58.518Z,40.50
2023-03-16T22:50:30.517Z,38.00
2023-03-16T22:53:01.887Z,39.75
2023-03-16T22:55:40.928Z,39.25
2023-03-16T22:58:15.854Z,40.25
2023-03-16T23:00:45.699Z,42.25
2023-03-16T23:03:20.649Z,38.00
2023-03-16T23:05:49.957Z,41.25
2023-03-16T23:08:22.079Z,37.00
2023-03-16T23:10:56.316Z,39.75
2023-03-16T23:13:26.917Z,38.50
2023-03-16T23:15:56.315Z,36.00
2023-03-16T23:18:27.886Z,38.50
2023-03-16T23:20:57.707Z,37.00
2023-03-16T23:23:26.622Z,38.50
2023-03-16T23:25:55.080Z,38.50
2023-03-16T23:28:25.687Z,40.25
2023-03-16T23:30:54.044Z,40.50
2023-03-16T23:33:22.854Z,40.25
2023-03-16T23:35:53.671Z,39.75
2023-03-16T23:38:22.160Z,38.50
2023-03-16T23:40:50.704Z,37.75
2023-03-16T23:43:18.993Z,39.00
2023-03-16T23:45:48.287Z,37.75
2023-03-16T23:48:23.149Z,41.25
2023-03-16T23:50:55.311Z,39.75
2023-03-16T23:53:24.941Z,41.25
2023-03-16T23:55:53.650Z,40.50
2023-03-16T23:58:22.682Z,41.00
